Terminal Aerodrome Forecast
Issued by NWS

Home | Current Version | Previous Version | Text Only | Print | Product List | Glossary On
Versions: 1 2 3 4 5 6 7 8 9 10 11 12 13
663
FTUS44 KLZK 261134
TAFHOT
TAF
KHOT 261134Z 2612/2712 15008KT P6SM BKN025 OVC050 WS020/20040KT
     FM261400 17008G18KT P6SM VCSH SCT025 OVC040
      TEMPO 2615/2618 5SM -TSRA OVC015CB
     FM261800 22012G25KT 5SM -TSRA BKN015CB OVC050
      TEMPO 2618/2622 VRB25G40KT 1SM TSRA OVC007CB
     FM262300 30012G20KT P6SM -SHRA BKN015 OVC040
     FM270300 30008KT P6SM OVC035=

USA.gov is the U.S. government's official web portal to all federal, state and local government web resources and services.